createdAt,value
2022-12-12T00:02:23.312Z,5.36
2022-12-12T00:04:51.807Z,5.36
2022-12-12T00:07:21.557Z,5.36
2022-12-12T00:09:49.925Z,5.37
2022-12-12T00:12:18.301Z,5.36
2022-12-12T00:14:46.634Z,5.35
2022-12-12T00:17:15.108Z,5.33
2022-12-12T00:19:44.157Z,5.32
2022-12-12T00:22:12.578Z,5.30
2022-12-12T00:24:42.305Z,5.28
2022-12-12T00:27:10.630Z,5.27
2022-12-12T00:29:39.064Z,5.26
2022-12-12T00:32:07.504Z,5.27
2022-12-12T00:34:35.896Z,5.28
2022-12-12T00:37:04.283Z,5.32
2022-12-12T00:39:32.637Z,5.36
2022-12-12T00:42:02.363Z,5.40
2022-12-12T00:44:30.750Z,5.44
2022-12-12T00:46:59.110Z,5.48
2022-12-12T00:49:28.052Z,5.53
2022-12-12T00:51:56.385Z,5.56
2022-12-12T00:54:24.905Z,5.60
2022-12-12T00:56:53.389Z,5.63
2022-12-12T00:59:23.200Z,5.65
2022-12-12T01:01:51.660Z,5.67
2022-12-12T01:04:20.030Z,5.69
2022-12-12T01:06:48.461Z,5.68
2022-12-12T01:09:16.830Z,5.68
2022-12-12T01:11:45.211Z,5.68
2022-12-12T01:14:13.758Z,5.67
2022-12-12T01:16:43.610Z,5.68
2022-12-12T01:19:11.963Z,5.68
2022-12-12T01:21:40.342Z,5.63
2022-12-12T01:24:08.893Z,5.58
2022-12-12T01:26:38.057Z,5.54
2022-12-12T01:29:06.457Z,5.47
2022-12-12T01:31:34.822Z,5.42
2022-12-12T01:34:04.656Z,5.35
2022-12-12T01:36:33.091Z,5.28
2022-12-12T01:39:01.463Z,5.18
2022-12-12T01:41:29.917Z,5.09
2022-12-12T01:44:02.350Z,5.00
2022-12-12T01:46:46.191Z,4.88
2022-12-12T01:49:24.701Z,4.79
2022-12-12T01:51:59.243Z,4.74
2022-12-12T01:54:32.755Z,4.69
2022-12-12T01:57:06.282Z,4.67
2022-12-12T01:59:36.604Z,4.65
2022-12-12T02:02:05.845Z,4.62
2022-12-12T02:04:36.049Z,4.57
2022-12-12T02:07:05.156Z,4.49
2022-12-12T02:09:34.762Z,4.42
2022-12-12T02:12:03.251Z,4.36
2022-12-12T02:14:36.048Z,4.31
2022-12-12T02:17:50.229Z,4.26
2022-12-12T02:20:56.943Z,4.17
2022-12-12T02:24:33.157Z,4.09
2022-12-12T02:27:57.823Z,4.00
2022-12-12T02:30:34.272Z,3.96
2022-12-12T02:33:30.182Z,3.91
2022-12-12T02:36:13.880Z,3.86
2022-12-12T02:38:53.692Z,3.83
2022-12-12T02:41:32.773Z,3.80
2022-12-12T02:44:15.830Z,3.78
2022-12-12T02:46:53.736Z,3.81
2022-12-12T02:49:29.205Z,3.86
2022-12-12T02:52:00.490Z,3.89
2022-12-12T02:54:29.310Z,3.92
2022-12-12T02:57:00.522Z,3.96
2022-12-12T02:59:34.145Z,3.98
2022-12-12T03:02:42.655Z,3.95
2022-12-12T03:05:50.252Z,3.90
2022-12-12T03:08:39.429Z,3.83
2022-12-12T03:11:12.061Z,3.81
2022-12-12T03:13:48.580Z,3.78
2022-12-12T03:16:27.450Z,3.74
2022-12-12T03:19:05.785Z,3.73
2022-12-12T03:21:44.459Z,3.71
2022-12-12T03:24:26.799Z,3.71
2022-12-12T03:27:00.558Z,3.72
2022-12-12T03:29:33.804Z,3.69
2022-12-12T03:32:10.237Z,3.67
2022-12-12T03:34:43.605Z,3.66
2022-12-12T03:37:20.841Z,3.65
2022-12-12T03:39:57.430Z,3.64
2022-12-12T03:42:31.324Z,3.65
2022-12-12T03:45:06.840Z,3.65
2022-12-12T03:47:42.465Z,3.66
2022-12-12T03:50:17.797Z,3.67
2022-12-12T03:52:53.328Z,3.72
2022-12-12T03:55:28.918Z,3.77
2022-12-12T03:58:02.205Z,3.85
2022-12-12T04:00:37.281Z,3.92
2022-12-12T04:03:15.810Z,3.99
2022-12-12T04:06:11.692Z,4.06
2022-12-12T04:09:02.360Z,4.12
2022-12-12T04:12:13.383Z,4.15
2022-12-12T04:15:15.367Z,4.19
2022-12-12T04:17:55.403Z,4.25
2022-12-12T04:20:48.616Z,4.31
2022-12-12T04:23:29.012Z,4.37
2022-12-12T04:26:28.926Z,4.40
2022-12-12T04:29:08.475Z,4.41
2022-12-12T04:31:42.930Z,4.44
2022-12-12T04:34:17.594Z,4.48
2022-12-12T04:36:48.842Z,4.51
2022-12-12T04:39:20.661Z,4.55
2022-12-12T04:41:53.973Z,4.60
2022-12-12T04:44:24.801Z,4.61
2022-12-12T04:46:57.675Z,4.58
2022-12-12T04:49:30.389Z,4.55
2022-12-12T04:52:03.884Z,4.50
2022-12-12T04:54:41.258Z,4.51
2022-12-12T04:57:16.523Z,4.54
2022-12-12T04:59:45.414Z,4.56
2022-12-12T05:02:25.514Z,4.57
2022-12-12T05:05:00.198Z,4.62
2022-12-12T05:07:40.036Z,4.63
2022-12-12T05:10:12.793Z,4.64
2022-12-12T05:12:46.470Z,4.67
2022-12-12T05:15:16.426Z,4.70
2022-12-12T05:17:48.913Z,4.73
2022-12-12T05:20:17.745Z,4.78
2022-12-12T05:22:46.098Z,4.82
2022-12-12T05:25:14.893Z,4.86
2022-12-12T05:27:44.786Z,4.88
2022-12-12T05:30:14.303Z,4.86
2022-12-12T05:32:42.661Z,4.81
2022-12-12T05:35:12.557Z,4.73
2022-12-12T05:37:41.203Z,4.65
2022-12-12T05:40:12.705Z,4.58
2022-12-12T05:42:41.250Z,4.52
2022-12-12T05:45:13.102Z,4.48
2022-12-12T05:47:41.884Z,4.43
2022-12-12T05:50:11.120Z,4.39
2022-12-12T05:52:39.648Z,4.40
2022-12-12T05:55:09.228Z,4.44
2022-12-12T05:57:37.580Z,4.44
2022-12-12T06:00:08.081Z,4.45
2022-12-12T06:02:37.974Z,4.48
2022-12-12T06:05:07.597Z,4.49
2022-12-12T06:07:35.944Z,4.48
2022-12-12T06:10:05.611Z,4.45
2022-12-12T06:12:34.007Z,4.43
2022-12-12T06:15:02.364Z,4.42
2022-12-12T06:17:33.362Z,4.42
2022-12-12T06:20:04.319Z,4.43
2022-12-12T06:22:32.800Z,4.42
2022-12-12T06:25:01.140Z,4.39
2022-12-12T06:27:29.594Z,4.35
2022-12-12T06:29:57.918Z,4.29
2022-12-12T06:32:26.247Z,4.24
2022-12-12T06:34:54.739Z,4.16
2022-12-12T06:37:24.584Z,4.12
2022-12-12T06:39:53.535Z,4.07
2022-12-12T06:42:21.970Z,4.03
2022-12-12T06:44:50.332Z,3.95
2022-12-12T06:47:18.745Z,3.93
2022-12-12T06:49:47.172Z,3.88
2022-12-12T06:52:15.542Z,3.84
2022-12-12T06:54:45.258Z,3.80
2022-12-12T06:57:13.685Z,3.79
2022-12-12T06:59:42.032Z,3.78
2022-12-12T07:02:12.368Z,3.73
2022-12-12T07:04:40.787Z,3.70
2022-12-12T07:07:09.150Z,3.71
2022-12-12T07:09:37.591Z,3.73
2022-12-12T07:12:07.563Z,3.78
2022-12-12T07:14:35.901Z,3.79
2022-12-12T07:17:04.297Z,3.79
2022-12-12T07:19:32.655Z,3.79
2022-12-12T07:22:07.494Z,3.80
2022-12-12T07:24:38.202Z,3.78
2022-12-12T07:27:08.519Z,3.76
2022-12-12T07:29:36.919Z,3.75
2022-12-12T07:32:05.908Z,3.75
2022-12-12T07:34:34.256Z,3.76
2022-12-12T07:37:03.442Z,3.75
2022-12-12T07:39:32.587Z,3.74
2022-12-12T07:42:01.143Z,3.77
2022-12-12T07:44:30.895Z,3.77
2022-12-12T07:46:59.899Z,3.79
2022-12-12T07:49:30.380Z,3.81
2022-12-12T07:51:58.729Z,3.83
2022-12-12T07:54:27.110Z,3.83
2022-12-12T07:56:55.644Z,3.86
2022-12-12T07:59:24.021Z,3.90
2022-12-12T08:01:53.870Z,3.93
2022-12-12T08:04:22.419Z,3.98
2022-12-12T08:06:56.198Z,4.03
2022-12-12T08:09:28.201Z,4.04
2022-12-12T08:11:57.103Z,4.06
2022-12-12T08:14:25.659Z,4.10
2022-12-12T08:16:55.475Z,4.14
2022-12-12T08:19:23.883Z,4.20
2022-12-12T08:21:52.346Z,4.23
2022-12-12T08:24:20.771Z,4.23
2022-12-12T08:26:51.829Z,4.21
2022-12-12T08:29:20.304Z,4.23
2022-12-12T08:31:48.930Z,4.26
2022-12-12T08:34:18.847Z,4.25
2022-12-12T08:36:47.563Z,4.28
2022-12-12T08:39:17.555Z,4.30
2022-12-12T08:41:48.536Z,4.32
2022-12-12T08:44:18.961Z,4.36
2022-12-12T08:46:49.049Z,4.41
2022-12-12T08:49:18.888Z,4.43
2022-12-12T08:51:47.355Z,4.44
2022-12-12T08:54:15.939Z,4.45
2022-12-12T08:56:44.399Z,4.43
2022-12-12T08:59:13.390Z,4.46
2022-12-12T09:01:42.353Z,4.50
2022-12-12T09:04:10.900Z,4.54
2022-12-12T09:06:40.708Z,4.59
2022-12-12T09:09:09.121Z,4.63
2022-12-12T09:11:37.540Z,4.67
2022-12-12T09:14:06.000Z,4.69
2022-12-12T09:16:34.493Z,4.67
2022-12-12T09:19:03.256Z,4.69
2022-12-12T09:21:31.665Z,4.71
2022-12-12T09:24:02.066Z,4.69
2022-12-12T09:26:30.585Z,4.69
2022-12-12T09:28:59.042Z,4.73
2022-12-12T09:31:27.502Z,4.82
2022-12-12T09:33:55.989Z,4.91
2022-12-12T09:36:24.399Z,4.89
2022-12-12T09:38:52.788Z,4.92
2022-12-12T09:41:27.301Z,4.97
2022-12-12T09:44:00.275Z,5.04
2022-12-12T09:46:35.811Z,5.09
2022-12-12T09:49:16.772Z,5.14
2022-12-12T09:51:49.231Z,5.19
2022-12-12T09:54:20.645Z,5.17
2022-12-12T09:57:06.029Z,5.18
2022-12-12T09:59:43.961Z,5.21
2022-12-12T10:02:49.424Z,5.20
2022-12-12T10:05:31.225Z,5.29
2022-12-12T10:08:11.785Z,5.35
2022-12-12T10:10:42.946Z,5.35
2022-12-12T10:13:18.089Z,5.33
2022-12-12T10:15:50.444Z,5.35
2022-12-12T10:18:26.212Z,5.44
2022-12-12T10:21:00.637Z,5.52
2022-12-12T10:23:38.936Z,5.53
2022-12-12T10:26:12.718Z,5.49
2022-12-12T10:28:42.599Z,5.46
2022-12-12T10:31:30.315Z,5.41
2022-12-12T10:34:18.625Z,5.40
2022-12-12T10:37:08.706Z,5.46
2022-12-12T10:39:51.671Z,5.55
2022-12-12T10:42:28.798Z,5.62
2022-12-12T10:45:19.309Z,5.60
2022-12-12T10:47:49.061Z,5.54
2022-12-12T10:50:29.772Z,5.53
2022-12-12T10:52:58.203Z,5.56
2022-12-12T10:55:40.465Z,5.59
2022-12-12T10:58:09.075Z,5.63
2022-12-12T11:00:41.875Z,5.63
2022-12-12T11:03:28.140Z,5.67
2022-12-12T11:05:58.249Z,5.78
2022-12-12T11:08:31.455Z,5.84
2022-12-12T11:11:06.584Z,5.88
2022-12-12T11:13:46.373Z,5.91
2022-12-12T11:16:20.758Z,5.97
2022-12-12T11:19:01.685Z,5.99
2022-12-12T11:21:32.928Z,6.05
2022-12-12T11:24:05.888Z,6.14
2022-12-12T11:26:44.690Z,6.21
2022-12-12T11:29:37.475Z,6.26
2022-12-12T11:32:15.901Z,6.35
2022-12-12T11:34:49.335Z,6.41
2022-12-12T11:37:20.616Z,6.49
2022-12-12T11:39:53.632Z,6.54
2022-12-12T11:42:26.250Z,6.60
2022-12-12T11:45:05.544Z,6.60
2022-12-12T11:47:42.483Z,6.67
2022-12-12T11:50:22.473Z,6.79
2022-12-12T11:52:53.005Z,6.84
2022-12-12T11:55:30.372Z,6.92
2022-12-12T11:58:16.951Z,6.96
2022-12-12T12:00:56.677Z,6.94
2022-12-12T12:03:36.805Z,6.84
2022-12-12T12:06:26.157Z,6.67
2022-12-12T12:09:19.543Z,6.55
2022-12-12T12:12:01.445Z,6.48
2022-12-12T12:15:07.403Z,6.46
2022-12-12T12:18:03.678Z,6.38
2022-12-12T12:20:54.478Z,6.27
2022-12-12T12:23:41.844Z,6.18
2022-12-12T12:26:20.453Z,6.09
2022-12-12T12:29:36.967Z,5.98
2022-12-12T12:32:15.041Z,5.90
2022-12-12T12:35:02.026Z,5.83
2022-12-12T12:37:49.722Z,5.77
2022-12-12T12:40:34.760Z,5.72
2022-12-12T12:43:28.529Z,5.71
2022-12-12T12:46:06.799Z,5.73
2022-12-12T12:48:40.604Z,5.75
2022-12-12T12:51:19.547Z,5.76
2022-12-12T12:53:55.886Z,5.81
2022-12-12T12:56:28.813Z,5.85
2022-12-12T12:59:02.460Z,5.89
2022-12-12T13:01:36.234Z,5.91
2022-12-12T13:04:15.540Z,5.94
2022-12-12T13:06:50.430Z,5.95
2022-12-12T13:09:33.478Z,5.97
2022-12-12T13:12:10.414Z,5.95
2022-12-12T13:14:47.385Z,5.96
2022-12-12T13:17:20.183Z,5.93
2022-12-12T13:19:53.483Z,5.85
2022-12-12T13:22:31.809Z,5.81
2022-12-12T13:25:10.451Z,5.68
2022-12-12T13:27:45.991Z,5.54
2022-12-12T13:30:24.773Z,5.45
2022-12-12T13:33:21.939Z,5.35
2022-12-12T13:35:54.672Z,5.32
2022-12-12T13:38:29.105Z,5.29
2022-12-12T13:41:01.405Z,5.27
2022-12-12T13:43:42.621Z,5.21
2022-12-12T13:46:41.054Z,5.15
2022-12-12T13:49:31.993Z,5.12
2022-12-12T13:52:23.986Z,5.10
2022-12-12T13:54:55.650Z,5.04
2022-12-12T13:57:34.583Z,4.97
2022-12-12T14:00:21.041Z,4.91
2022-12-12T14:03:03.534Z,4.90
2022-12-12T14:05:36.102Z,4.90
2022-12-12T14:08:21.081Z,4.92
2022-12-12T14:10:58.257Z,4.93
2022-12-12T14:13:44.930Z,4.87
2022-12-12T14:16:23.204Z,4.82
2022-12-12T14:19:29.687Z,4.77
2022-12-12T14:21:58.146Z,4.80
2022-12-12T14:25:07.780Z,4.78
2022-12-12T14:28:16.917Z,4.74
2022-12-12T14:31:00.627Z,4.71
2022-12-12T14:34:11.490Z,4.69
2022-12-12T14:37:18.494Z,4.70
2022-12-12T14:40:03.809Z,4.71
2022-12-12T14:43:19.628Z,4.73
2022-12-12T14:45:38.195Z,4.70
2022-12-12T14:48:18.734Z,4.67
2022-12-12T14:50:55.965Z,4.67
2022-12-12T14:53:28.758Z,4.66
2022-12-12T14:56:01.422Z,4.64
2022-12-12T14:58:33.335Z,4.61
2022-12-12T15:01:05.248Z,4.59
2022-12-12T15:03:40.905Z,4.57
2022-12-12T15:06:38.812Z,4.52
2022-12-12T15:09:20.448Z,4.48
2022-12-12T15:11:50.984Z,4.47
2022-12-12T15:14:23.559Z,4.45
2022-12-12T15:17:01.500Z,4.46
2022-12-12T15:19:36.136Z,4.47
2022-12-12T15:22:10.395Z,4.50
2022-12-12T15:24:40.488Z,4.51
2022-12-12T15:27:09.233Z,4.52
2022-12-12T15:29:39.646Z,4.50
2022-12-12T15:32:17.549Z,4.47
2022-12-12T15:34:49.824Z,4.45
2022-12-12T15:37:26.866Z,4.46
2022-12-12T15:40:31.163Z,4.44
2022-12-12T15:43:03.287Z,4.43
2022-12-12T15:45:35.332Z,4.43
2022-12-12T15:48:06.016Z,4.44
2022-12-12T15:50:57.081Z,4.43
2022-12-12T15:53:28.081Z,4.44
2022-12-12T15:56:01.799Z,4.43
2022-12-12T15:58:33.288Z,4.41
2022-12-12T16:01:20.653Z,4.38
2022-12-12T16:03:59.699Z,4.35
2022-12-12T16:06:36.775Z,4.32
2022-12-12T16:09:17.928Z,4.30
2022-12-12T16:11:48.198Z,4.30
2022-12-12T16:14:40.674Z,4.27
2022-12-12T16:17:15.512Z,4.27
2022-12-12T16:19:53.678Z,4.26
2022-12-12T16:22:34.840Z,4.25
2022-12-12T16:25:18.533Z,4.21
2022-12-12T16:27:53.391Z,4.23
2022-12-12T16:30:21.833Z,4.24
2022-12-12T16:32:50.414Z,4.25
2022-12-12T16:35:21.234Z,4.26
2022-12-12T16:37:52.632Z,4.30
2022-12-12T16:40:23.395Z,4.32
2022-12-12T16:43:04.798Z,4.31
2022-12-12T16:45:36.474Z,4.31
2022-12-12T16:48:17.102Z,4.32
2022-12-12T16:50:46.666Z,4.32
2022-12-12T16:53:16.856Z,4.31
2022-12-12T16:55:47.755Z,4.29
2022-12-12T16:58:16.825Z,4.28
2022-12-12T17:00:46.549Z,4.25
2022-12-12T17:03:17.521Z,4.23
2022-12-12T17:05:50.178Z,4.19
2022-12-12T17:08:20.829Z,4.14
2022-12-12T17:11:10.568Z,4.11
2022-12-12T17:13:45.606Z,4.07
2022-12-12T17:16:14.547Z,4.03
2022-12-12T17:18:43.445Z,4.02
2022-12-12T17:21:12.616Z,4.02
2022-12-12T17:23:43.765Z,4.02
2022-12-12T17:26:12.587Z,4.03
2022-12-12T17:28:42.031Z,4.04
2022-12-12T17:31:11.662Z,4.04
2022-12-12T17:33:49.816Z,4.07
2022-12-12T17:36:19.312Z,4.06
2022-12-12T17:38:50.103Z,4.07
2022-12-12T17:41:19.439Z,4.06
2022-12-12T17:43:55.093Z,4.07
2022-12-12T17:46:26.768Z,4.05
2022-12-12T17:48:57.710Z,4.05
2022-12-12T17:51:27.055Z,4.03
2022-12-12T17:53:59.863Z,4.00
2022-12-12T17:56:29.634Z,3.98
2022-12-12T17:58:58.560Z,3.94
2022-12-12T18:01:30.174Z,3.90
2022-12-12T18:04:01.078Z,3.85
2022-12-12T18:06:32.164Z,3.80
2022-12-12T18:09:02.942Z,3.75
2022-12-12T18:11:36.113Z,3.70
2022-12-12T18:14:09.665Z,3.65
2022-12-12T18:16:38.355Z,3.62
2022-12-12T18:19:08.448Z,3.59
2022-12-12T18:24:30.085Z,3.52
2022-12-12T18:27:04.444Z,3.50
2022-12-12T18:29:34.989Z,3.47
2022-12-12T18:32:05.026Z,3.48
2022-12-12T18:34:34.920Z,3.48
2022-12-12T18:37:05.272Z,3.47
2022-12-12T18:39:35.672Z,3.47
2022-12-12T18:42:05.628Z,3.47
2022-12-12T18:44:35.248Z,3.45
2022-12-12T18:47:04.371Z,3.42
2022-12-12T18:49:34.009Z,3.42
2022-12-12T18:52:04.848Z,3.40
2022-12-12T18:54:36.175Z,3.38
2022-12-12T18:57:06.044Z,3.36
2022-12-12T18:59:38.506Z,3.33
2022-12-12T19:02:14.315Z,3.31
2022-12-12T19:04:44.906Z,3.28
2022-12-12T19:07:14.774Z,3.26
2022-12-12T19:09:47.827Z,3.25
2022-12-12T19:12:18.011Z,3.23
2022-12-12T19:17:42.034Z,3.18
2022-12-12T19:20:18.767Z,3.16
2022-12-12T19:22:50.530Z,3.15
2022-12-12T19:25:22.498Z,3.14
2022-12-12T19:27:52.810Z,3.15
2022-12-12T19:30:28.543Z,3.15
2022-12-12T19:32:58.571Z,3.14
2022-12-12T19:35:28.569Z,3.15
2022-12-12T19:37:58.720Z,3.16
2022-12-12T19:40:30.094Z,3.15
2022-12-12T19:43:00.242Z,3.15
2022-12-12T19:45:32.159Z,3.15
2022-12-12T19:48:02.015Z,3.15
2022-12-12T19:50:32.643Z,3.16
2022-12-12T19:53:02.801Z,3.15
2022-12-12T19:55:34.732Z,3.14
2022-12-12T19:58:04.916Z,3.13
2022-12-12T20:00:34.416Z,3.12
2022-12-12T20:03:05.008Z,3.13
2022-12-12T20:05:34.453Z,3.12
2022-12-12T20:08:05.304Z,3.12
2022-12-12T20:10:38.903Z,3.10
2022-12-12T20:13:08.529Z,3.10
2022-12-12T20:15:40.305Z,3.10
2022-12-12T20:18:16.116Z,3.09
2022-12-12T20:20:47.373Z,3.08
2022-12-12T20:23:17.385Z,3.07
2022-12-12T20:25:48.975Z,3.05
2022-12-12T20:28:20.393Z,3.03
2022-12-12T20:30:53.697Z,3.02
2022-12-12T20:33:23.185Z,3.01
2022-12-12T20:35:52.463Z,3.00
2022-12-12T20:38:23.965Z,2.99
2022-12-12T20:40:55.224Z,2.98
2022-12-12T20:43:25.699Z,2.98
2022-12-12T20:45:55.567Z,2.97
2022-12-12T20:48:29.875Z,2.98
2022-12-12T20:51:00.704Z,2.98
2022-12-12T20:53:36.148Z,2.97
2022-12-12T20:56:11.239Z,2.95
2022-12-12T20:58:41.532Z,2.94
2022-12-12T21:01:15.459Z,2.94
2022-12-12T21:03:45.374Z,2.94
2022-12-12T21:06:15.326Z,2.94
2022-12-12T21:08:48.317Z,2.93
2022-12-12T21:11:21.023Z,2.94
2022-12-12T21:13:51.141Z,2.96
2022-12-12T21:16:23.603Z,2.97
2022-12-12T21:18:56.140Z,2.98
2022-12-12T21:21:26.011Z,2.99
2022-12-12T21:23:56.025Z,2.97
2022-12-12T21:26:29.460Z,2.99
2022-12-12T21:29:00.031Z,3.00
2022-12-12T21:31:31.997Z,2.99
2022-12-12T21:34:01.508Z,2.98
2022-12-12T21:36:31.510Z,2.98
2022-12-12T21:39:01.825Z,2.98
2022-12-12T21:41:31.760Z,2.97
2022-12-12T21:44:00.763Z,2.96
2022-12-12T21:46:30.667Z,2.95
2022-12-12T21:49:17.555Z,2.94
2022-12-12T21:51:46.716Z,2.91
2022-12-12T21:54:16.765Z,2.89
2022-12-12T21:56:46.868Z,2.89
2022-12-12T21:59:15.964Z,2.87
2022-12-12T22:01:44.945Z,2.84
2022-12-12T22:04:14.565Z,2.85
2022-12-12T22:06:45.374Z,2.84
2022-12-12T22:09:14.381Z,2.82
2022-12-12T22:11:50.724Z,2.82
2022-12-12T22:14:22.947Z,2.80
2022-12-12T22:16:51.578Z,2.80
2022-12-12T22:19:20.176Z,2.80
2022-12-12T22:21:50.487Z,2.78
2022-12-12T22:24:19.244Z,2.77
2022-12-12T22:26:49.965Z,2.78
2022-12-12T22:29:22.038Z,2.77
2022-12-12T22:31:52.239Z,2.77
2022-12-12T22:34:23.893Z,2.76
2022-12-12T22:36:53.107Z,2.76
2022-12-12T22:39:25.274Z,2.75
2022-12-12T22:41:54.002Z,2.74
2022-12-12T22:44:25.489Z,2.73
2022-12-12T22:46:55.865Z,2.71
2022-12-12T22:49:26.758Z,2.69
2022-12-12T22:51:58.807Z,2.68
2022-12-12T22:54:28.119Z,2.67
2022-12-12T22:56:56.648Z,2.65
2022-12-12T22:59:26.599Z,2.64
2022-12-12T23:01:55.047Z,2.63
2022-12-12T23:04:23.434Z,2.63
2022-12-12T23:06:51.843Z,2.63
2022-12-12T23:09:23.124Z,2.62
2022-12-12T23:11:51.472Z,2.61
2022-12-12T23:14:23.951Z,2.59
2022-12-12T23:16:55.273Z,2.57
2022-12-12T23:19:27.337Z,2.56
2022-12-12T23:21:55.778Z,2.57
2022-12-12T23:24:24.146Z,2.55
2022-12-12T23:26:53.180Z,2.52
2022-12-12T23:29:21.705Z,2.50
2022-12-12T23:31:50.506Z,2.49
2022-12-12T23:34:23.363Z,2.47
2022-12-12T23:36:52.705Z,2.45
2022-12-12T23:39:21.853Z,2.43
2022-12-12T23:41:50.621Z,2.43
2022-12-12T23:44:21.405Z,2.40
2022-12-12T23:46:50.125Z,2.39
2022-12-12T23:49:22.790Z,2.38
2022-12-12T23:51:53.671Z,2.37
2022-12-12T23:54:25.289Z,2.37
2022-12-12T23:56:54.714Z,2.35
2022-12-12T23:59:23.858Z,2.35
